createdAt,value
2018-07-21T00:00:50.252Z,6.50
2018-07-21T00:03:19.331Z,7.40
2018-07-21T00:05:48.152Z,7.80
2018-07-21T00:08:17.328Z,7.70
2018-07-21T00:10:46.378Z,6.37
2018-07-21T00:13:15.446Z,6.87
2018-07-21T00:15:44.402Z,7.83
2018-07-21T00:18:13.219Z,7.93
2018-07-21T00:20:42.238Z,7.60
2018-07-21T00:23:11.114Z,8.57
2018-07-21T00:25:39.933Z,7.57
2018-07-21T00:28:08.897Z,6.80
2018-07-21T00:30:37.774Z,7.77
2018-07-21T00:33:06.822Z,6.53
2018-07-21T00:35:35.744Z,8.40
2018-07-21T00:38:04.727Z,7.40
2018-07-21T00:40:33.780Z,8.20
2018-07-21T00:43:02.584Z,8.50
2018-07-21T00:45:31.655Z,6.90
2018-07-21T00:48:00.571Z,7.67
2018-07-21T00:50:29.792Z,8.20
2018-07-21T00:52:58.682Z,6.97
2018-07-21T00:55:28.440Z,7.80
2018-07-21T00:57:57.424Z,6.90
2018-07-21T01:00:26.196Z,8.93
2018-07-21T01:02:54.894Z,8.00
2018-07-21T01:05:23.619Z,7.73
2018-07-21T01:07:52.881Z,7.50
2018-07-21T01:10:21.816Z,9.07
2018-07-21T01:12:50.707Z,9.50
2018-07-21T01:15:19.288Z,7.73
2018-07-21T01:17:47.938Z,8.13
2018-07-21T01:20:18.785Z,9.03
2018-07-21T01:22:47.395Z,9.83
2018-07-21T01:25:15.072Z,10.17
2018-07-21T01:27:43.680Z,9.47
2018-07-21T01:30:12.378Z,10.90
2018-07-21T01:32:40.982Z,11.00
2018-07-21T01:35:10.866Z,8.60
2018-07-21T01:37:39.628Z,9.13
2018-07-21T01:40:08.544Z,9.60
2018-07-21T01:42:37.324Z,10.10
2018-07-21T01:45:07.195Z,10.60
2018-07-21T01:47:36.029Z,11.07
2018-07-21T01:50:04.950Z,10.80
2018-07-21T01:52:33.880Z,9.93
2018-07-21T01:55:02.487Z,11.37
2018-07-21T01:57:31.223Z,10.53
2018-07-21T01:59:59.884Z,10.07
2018-07-21T02:02:28.647Z,9.07
2018-07-21T02:04:57.292Z,9.80
2018-07-21T02:07:26.005Z,11.17
2018-07-21T02:09:54.551Z,11.07
2018-07-21T02:12:23.240Z,10.00
2018-07-21T02:14:52.008Z,11.87
2018-07-21T02:17:20.541Z,10.13
2018-07-21T02:19:49.289Z,11.37
2018-07-21T02:22:18.190Z,9.47
2018-07-21T02:24:46.913Z,12.17
2018-07-21T02:27:15.771Z,10.30
2018-07-21T02:29:44.442Z,11.97
2018-07-21T02:32:13.163Z,10.50
2018-07-21T02:34:41.896Z,9.60
2018-07-21T02:37:10.600Z,11.03
2018-07-21T02:39:39.205Z,10.93
2018-07-21T02:42:07.902Z,10.93
2018-07-21T02:44:36.462Z,10.23
2018-07-21T02:47:05.203Z,8.90
2018-07-21T02:49:33.746Z,9.50
2018-07-21T02:52:02.327Z,10.80
2018-07-21T02:54:30.968Z,11.10
2018-07-21T02:56:59.659Z,10.50
2018-07-21T02:59:28.491Z,11.33
2018-07-21T03:01:57.273Z,10.70
2018-07-21T03:04:25.963Z,9.60
2018-07-21T03:06:54.636Z,11.27
2018-07-21T03:09:23.243Z,9.27
2018-07-21T03:11:51.898Z,11.27
2018-07-21T03:14:20.564Z,11.43
2018-07-21T03:16:49.266Z,10.00
2018-07-21T03:19:18.014Z,12.57
2018-07-21T03:21:46.684Z,10.70
2018-07-21T03:24:15.409Z,11.00
2018-07-21T03:26:44.090Z,10.33
2018-07-21T03:29:13.702Z,11.20
2018-07-21T03:31:42.408Z,9.97
2018-07-21T03:34:11.606Z,11.03
2018-07-21T03:36:40.256Z,10.67
2018-07-21T03:39:10.777Z,12.13
2018-07-21T03:41:39.593Z,10.90
2018-07-21T03:44:08.268Z,10.77
2018-07-21T03:46:36.990Z,11.67
2018-07-21T03:49:05.652Z,11.87
2018-07-21T03:51:34.285Z,12.20
2018-07-21T03:54:02.950Z,12.50
2018-07-21T03:56:31.524Z,11.80
2018-07-21T03:59:00.312Z,12.30
2018-07-21T04:01:28.903Z,13.00
2018-07-21T04:03:58.437Z,11.60
2018-07-21T04:06:27.119Z,11.53
2018-07-21T04:08:56.390Z,11.77
2018-07-21T04:11:25.185Z,10.67
2018-07-21T04:13:53.821Z,12.17
2018-07-21T04:16:22.697Z,12.17
2018-07-21T04:18:51.397Z,14.93
2018-07-21T04:21:20.086Z,12.97
2018-07-21T04:23:48.764Z,12.87
2018-07-21T04:26:17.615Z,15.00
2018-07-21T04:28:46.452Z,12.03
2018-07-21T04:31:15.114Z,12.70
2018-07-21T04:33:43.935Z,12.13
2018-07-21T04:36:12.631Z,14.43
2018-07-21T04:38:41.322Z,12.53
2018-07-21T04:41:10.827Z,11.77
2018-07-21T04:43:39.590Z,11.30
2018-07-21T04:46:08.286Z,14.10
2018-07-21T04:48:37.054Z,13.83
2018-07-21T04:51:05.799Z,14.13
2018-07-21T04:53:34.591Z,14.00
2018-07-21T04:56:03.275Z,12.83
2018-07-21T04:58:31.979Z,13.57
2018-07-21T05:01:00.691Z,14.10
2018-07-21T05:03:29.286Z,15.27
2018-07-21T05:05:58.275Z,13.30
2018-07-21T05:08:26.977Z,14.40
2018-07-21T05:10:55.772Z,13.90
2018-07-21T05:13:24.749Z,12.13
2018-07-21T05:15:53.275Z,14.60
2018-07-21T05:18:22.626Z,14.03
2018-07-21T05:20:51.526Z,15.20
2018-07-21T05:23:20.149Z,14.50
2018-07-21T05:25:49.033Z,15.50
2018-07-21T05:28:18.660Z,15.23
2018-07-21T05:30:47.393Z,14.70
2018-07-21T05:33:16.128Z,14.80
2018-07-21T05:35:44.887Z,16.90
2018-07-21T05:38:13.581Z,14.20
2018-07-21T05:40:42.385Z,13.40
2018-07-21T05:43:11.130Z,13.43
2018-07-21T05:45:39.794Z,15.93
2018-07-21T05:48:08.620Z,15.20
2018-07-21T05:50:37.382Z,15.50
2018-07-21T05:53:06.224Z,16.27
2018-07-21T05:55:34.936Z,15.60
2018-07-21T05:58:03.696Z,16.47
2018-07-21T06:00:32.377Z,13.40
2018-07-21T06:03:01.161Z,14.77
2018-07-21T06:05:29.954Z,15.57
2018-07-21T06:07:58.793Z,15.03
2018-07-21T06:10:27.430Z,15.90
2018-07-21T06:12:56.468Z,13.37
2018-07-21T06:15:25.179Z,13.03
2018-07-21T06:17:54.100Z,15.33
2018-07-21T06:20:22.793Z,13.73
2018-07-21T06:22:51.626Z,13.63
2018-07-21T06:25:20.472Z,14.73
2018-07-21T06:27:49.059Z,13.80
2018-07-21T06:30:17.779Z,13.47
2018-07-21T06:32:46.613Z,13.80
2018-07-21T06:35:15.292Z,13.40
2018-07-21T06:37:44.012Z,13.17
2018-07-21T06:40:12.666Z,11.63
2018-07-21T06:42:41.477Z,13.90
2018-07-21T06:45:10.266Z,14.60
2018-07-21T06:47:39.052Z,14.87
2018-07-21T06:50:08.446Z,14.73
2018-07-21T06:52:37.124Z,15.43
2018-07-21T06:55:05.935Z,13.60
2018-07-21T06:57:34.708Z,15.20
2018-07-21T07:00:03.458Z,14.03
2018-07-21T07:02:32.165Z,14.60
2018-07-21T07:05:00.896Z,14.93
2018-07-21T07:07:29.548Z,14.90
2018-07-21T07:09:58.232Z,13.20
2018-07-21T07:12:26.972Z,13.77
2018-07-21T07:14:55.756Z,13.27
2018-07-21T07:17:24.494Z,14.70
2018-07-21T07:19:53.360Z,13.60
2018-07-21T07:22:22.030Z,12.50
2018-07-21T07:24:50.989Z,11.97
2018-07-21T07:27:19.752Z,13.67
2018-07-21T07:29:48.354Z,14.30
2018-07-21T07:32:17.124Z,14.07
2018-07-21T07:34:45.878Z,14.00
2018-07-21T07:37:14.636Z,14.13
2018-07-21T07:39:43.476Z,13.27
2018-07-21T07:42:12.113Z,14.97
2018-07-21T07:44:40.941Z,12.77
2018-07-21T07:47:09.707Z,15.03
2018-07-21T07:49:38.506Z,13.33
2018-07-21T07:52:07.285Z,16.23
2018-07-21T07:54:36.118Z,14.60
2018-07-21T07:57:04.852Z,14.20
2018-07-21T07:59:33.529Z,13.70
2018-07-21T08:02:02.284Z,14.20
2018-07-21T08:04:30.946Z,12.43
2018-07-21T08:06:59.657Z,14.37
2018-07-21T08:09:28.470Z,13.93
2018-07-21T08:11:57.210Z,12.97
2018-07-21T08:14:26.097Z,14.03
2018-07-21T08:16:54.852Z,16.43
2018-07-21T08:19:23.702Z,13.03
2018-07-21T08:21:52.431Z,15.47
2018-07-21T08:24:21.278Z,15.27
2018-07-21T08:26:50.057Z,14.43
2018-07-21T08:29:18.750Z,13.30
2018-07-21T08:31:47.489Z,12.47
2018-07-21T08:34:16.228Z,14.60
2018-07-21T08:36:45.106Z,14.67
2018-07-21T08:39:13.887Z,13.83
2018-07-21T08:41:42.654Z,16.43
2018-07-21T08:44:11.348Z,16.90
2018-07-21T08:46:40.053Z,14.50
2018-07-21T08:49:08.895Z,15.83
2018-07-21T08:51:37.643Z,15.30
2018-07-21T08:54:06.307Z,13.63
2018-07-21T08:56:35.059Z,17.30
2018-07-21T08:59:04.010Z,13.97
2018-07-21T09:01:32.681Z,14.50
2018-07-21T09:04:01.432Z,15.00
2018-07-21T09:06:30.744Z,13.90
2018-07-21T09:08:59.627Z,12.53
2018-07-21T09:11:28.413Z,13.57
2018-07-21T09:13:57.356Z,13.50
2018-07-21T09:16:26.062Z,14.87
2018-07-21T09:18:54.772Z,13.07
2018-07-21T09:21:23.535Z,13.07
2018-07-21T09:23:52.214Z,13.17
2018-07-21T09:26:20.799Z,12.10
2018-07-21T09:28:49.516Z,12.23
2018-07-21T09:31:18.202Z,12.57
2018-07-21T09:33:46.950Z,14.53
2018-07-21T09:36:15.704Z,13.37
2018-07-21T09:38:44.424Z,13.23
2018-07-21T09:41:13.070Z,13.40
2018-07-21T09:43:41.930Z,12.63
2018-07-21T09:46:10.719Z,13.23
2018-07-21T09:48:39.466Z,13.37
2018-07-21T09:51:08.324Z,13.53
2018-07-21T09:53:37.166Z,11.73
2018-07-21T09:56:06.004Z,11.80
2018-07-21T09:58:34.804Z,11.90
2018-07-21T10:01:04.633Z,12.87
2018-07-21T10:03:34.624Z,12.90
2018-07-21T10:06:03.996Z,9.90
2018-07-21T10:08:33.740Z,10.40
2018-07-21T10:11:02.430Z,10.20
2018-07-21T10:13:31.217Z,10.50
2018-07-21T10:15:59.976Z,12.03
2018-07-21T10:18:28.771Z,10.87
2018-07-21T10:20:57.429Z,12.53
2018-07-21T10:23:26.101Z,10.67
2018-07-21T10:26:00.007Z,12.70
2018-07-21T10:28:33.903Z,13.00
2018-07-21T10:31:02.634Z,11.77
2018-07-21T10:33:31.339Z,11.50
2018-07-21T10:36:00.189Z,11.20
2018-07-21T10:38:29.033Z,13.23
2018-07-21T10:40:57.712Z,13.97
2018-07-21T10:43:26.481Z,11.60
2018-07-21T10:45:55.182Z,11.40
2018-07-21T10:48:23.921Z,11.53
2018-07-21T10:50:52.655Z,12.90
2018-07-21T10:53:21.248Z,12.70
2018-07-21T10:55:50.855Z,14.03
2018-07-21T10:58:19.607Z,14.70
2018-07-21T11:00:48.383Z,13.63
2018-07-21T11:03:17.132Z,12.50
2018-07-21T11:05:45.805Z,11.33
2018-07-21T11:08:14.422Z,10.67
2018-07-21T11:10:43.185Z,10.97
2018-07-21T11:13:12.880Z,12.20
2018-07-21T11:15:42.709Z,12.97
2018-07-21T11:18:11.486Z,13.93
2018-07-21T11:20:40.251Z,11.50
2018-07-21T11:23:09.034Z,12.87
2018-07-21T11:25:37.747Z,12.97
2018-07-21T11:28:06.541Z,13.93
2018-07-21T11:30:35.318Z,11.53
2018-07-21T11:33:04.034Z,11.13
2018-07-21T11:35:32.948Z,10.53
2018-07-21T11:38:01.496Z,13.50
2018-07-21T11:40:30.251Z,10.70
2018-07-21T11:42:58.906Z,12.70
2018-07-21T11:45:27.680Z,11.20
2018-07-21T11:47:56.368Z,11.13
2018-07-21T11:50:25.071Z,10.27
2018-07-21T11:52:53.740Z,11.77
2018-07-21T11:55:22.339Z,10.93
2018-07-21T11:57:50.961Z,10.53
2018-07-21T12:00:19.575Z,9.17
2018-07-21T12:02:48.238Z,11.10
2018-07-21T12:05:16.868Z,10.20
2018-07-21T12:07:45.627Z,12.20
2018-07-21T12:10:14.445Z,9.73
2018-07-21T12:12:43.183Z,10.47
2018-07-21T12:15:11.860Z,9.90
2018-07-21T12:17:40.885Z,10.23
2018-07-21T12:20:09.555Z,12.67
2018-07-21T12:22:38.261Z,10.43
2018-07-21T12:25:07.028Z,11.03
2018-07-21T12:27:35.900Z,10.90
2018-07-21T12:30:05.172Z,9.73
2018-07-21T12:32:33.938Z,9.73
2018-07-21T12:35:02.686Z,9.20
2018-07-21T12:37:31.700Z,9.47
2018-07-21T12:40:01.477Z,8.90
2018-07-21T12:42:30.250Z,8.60
2018-07-21T12:44:59.104Z,10.03
2018-07-21T12:47:27.826Z,9.90
2018-07-21T12:49:56.654Z,10.00
2018-07-21T12:52:25.396Z,9.50
2018-07-21T12:54:54.213Z,10.70
2018-07-21T12:57:22.957Z,9.40
2018-07-21T12:59:51.670Z,8.17
2018-07-21T13:02:20.515Z,8.50
2018-07-21T13:04:49.289Z,9.63
2018-07-21T13:07:21.583Z,9.20
2018-07-21T13:09:50.309Z,9.40
2018-07-21T13:12:19.083Z,9.40
2018-07-21T13:14:47.904Z,9.87
2018-07-21T13:17:16.606Z,8.80
2018-07-21T13:19:45.306Z,8.73
2018-07-21T13:22:14.117Z,9.17
2018-07-21T13:24:42.998Z,9.17
2018-07-21T13:27:11.654Z,8.97
2018-07-21T13:29:40.406Z,9.20
2018-07-21T13:32:09.510Z,8.77
2018-07-21T13:34:38.253Z,8.80
2018-07-21T13:37:07.106Z,9.37
2018-07-21T13:39:35.794Z,9.33
2018-07-21T13:42:04.629Z,9.20
2018-07-21T13:44:33.336Z,8.90
2018-07-21T13:47:02.118Z,9.67
2018-07-21T13:49:30.827Z,9.90
2018-07-21T13:51:59.510Z,9.27
2018-07-21T13:54:29.092Z,8.90
2018-07-21T13:56:57.838Z,10.07
2018-07-21T13:59:26.559Z,8.53
2018-07-21T14:01:55.324Z,10.00
2018-07-21T14:04:24.121Z,10.43
2018-07-21T14:06:52.880Z,10.50
2018-07-21T14:09:21.586Z,9.23
2018-07-21T14:11:50.676Z,11.13
2018-07-21T14:14:19.393Z,9.93
2018-07-21T14:16:48.144Z,9.67
2018-07-21T14:19:17.877Z,8.67
2018-07-21T14:21:46.590Z,9.27
2018-07-21T14:24:15.582Z,9.50
2018-07-21T14:26:44.278Z,10.27
2018-07-21T14:29:13.030Z,11.40
2018-07-21T14:31:41.641Z,10.50
2018-07-21T14:34:10.418Z,10.80
2018-07-21T14:36:39.160Z,9.40
2018-07-21T14:39:09.766Z,8.80
2018-07-21T14:41:38.811Z,9.13
2018-07-21T14:44:07.487Z,9.93
2018-07-21T14:46:36.380Z,9.13
2018-07-21T14:49:05.477Z,8.97
2018-07-21T14:51:34.430Z,8.40
2018-07-21T14:54:03.220Z,9.60
2018-07-21T14:56:31.918Z,9.97
2018-07-21T14:59:00.691Z,10.30
2018-07-21T15:01:29.373Z,10.60
2018-07-21T15:03:58.164Z,10.93
2018-07-21T15:06:26.929Z,9.73
2018-07-21T15:08:55.716Z,11.00
2018-07-21T15:11:24.498Z,8.90
2018-07-21T15:13:53.492Z,9.80
2018-07-21T15:16:22.282Z,8.57
2018-07-21T15:18:51.078Z,9.43
2018-07-21T15:21:19.731Z,9.20
2018-07-21T15:23:48.474Z,9.50
2018-07-21T15:26:17.117Z,9.33
2018-07-21T15:28:45.852Z,10.20
2018-07-21T15:31:14.621Z,8.10
2018-07-21T15:33:43.340Z,9.80
2018-07-21T15:36:12.096Z,10.80
2018-07-21T15:38:40.912Z,10.57
2018-07-21T15:41:09.667Z,9.00
2018-07-21T15:43:38.432Z,8.13
2018-07-21T15:46:07.351Z,10.20
2018-07-21T15:48:36.235Z,10.53
2018-07-21T15:51:05.066Z,10.70
2018-07-21T15:53:33.796Z,10.90
2018-07-21T15:56:03.576Z,10.40
2018-07-21T15:58:32.511Z,10.90
2018-07-21T16:01:01.154Z,13.23
2018-07-21T16:03:29.816Z,11.33
2018-07-21T16:05:58.586Z,10.83
2018-07-21T16:08:27.325Z,10.80
2018-07-21T16:10:55.969Z,10.37
2018-07-21T16:13:24.762Z,9.80
2018-07-21T16:15:53.509Z,8.80
2018-07-21T16:18:22.250Z,10.27
2018-07-21T16:20:50.918Z,11.30
2018-07-21T16:23:19.602Z,10.90
2018-07-21T16:25:48.325Z,10.17
2018-07-21T16:28:17.154Z,11.70
2018-07-21T16:30:45.796Z,11.90
2018-07-21T16:33:14.544Z,10.90
2018-07-21T16:35:43.292Z,11.80
2018-07-21T16:38:12.142Z,10.93
2018-07-21T16:40:40.894Z,11.13
2018-07-21T16:43:09.696Z,11.27
2018-07-21T16:45:38.422Z,10.70
2018-07-21T16:48:07.093Z,12.23
2018-07-21T16:50:35.877Z,11.97
2018-07-21T16:53:04.580Z,11.87
2018-07-21T16:55:33.331Z,10.13
2018-07-21T16:58:02.106Z,12.80
2018-07-21T17:00:30.762Z,10.47
2018-07-21T17:02:59.560Z,14.30
2018-07-21T17:05:28.343Z,12.10
2018-07-21T17:07:57.164Z,11.80
2018-07-21T17:10:25.974Z,12.03
2018-07-21T17:12:54.787Z,11.17
2018-07-21T17:15:23.502Z,11.27
2018-07-21T17:17:52.267Z,9.17
2018-07-21T17:20:21.043Z,9.80
2018-07-21T17:22:49.780Z,8.80
2018-07-21T17:25:18.551Z,9.20
2018-07-21T17:27:47.266Z,9.00
2018-07-21T17:30:16.015Z,7.73
2018-07-21T17:32:44.793Z,8.30
2018-07-21T17:35:13.553Z,7.90
2018-07-21T17:37:42.170Z,8.43
2018-07-21T17:40:10.878Z,7.60
2018-07-21T17:42:39.739Z,8.83
2018-07-21T17:45:08.572Z,8.77
2018-07-21T17:47:37.526Z,8.57
2018-07-21T17:50:06.230Z,6.93
2018-07-21T17:52:34.781Z,8.37
2018-07-21T17:55:03.775Z,7.37
2018-07-21T17:57:32.538Z,9.13
2018-07-21T18:00:01.349Z,8.10
2018-07-21T18:02:30.151Z,8.00
2018-07-21T18:04:59.109Z,7.20
2018-07-21T18:07:27.850Z,8.50
2018-07-21T18:09:56.671Z,8.00
2018-07-21T18:12:25.317Z,8.43
2018-07-21T18:14:53.977Z,8.40
2018-07-21T18:17:22.735Z,9.20
2018-07-21T18:19:51.472Z,8.10
2018-07-21T18:22:20.215Z,7.57
2018-07-21T18:24:48.995Z,8.07
2018-07-21T18:27:17.697Z,7.87
2018-07-21T18:29:46.480Z,6.73
2018-07-21T18:32:15.304Z,8.30
2018-07-21T18:34:44.028Z,9.03
2018-07-21T18:37:12.754Z,9.20
2018-07-21T18:39:41.647Z,8.87
2018-07-21T18:42:10.645Z,8.30
2018-07-21T18:44:39.269Z,8.77
2018-07-21T18:47:07.930Z,8.77
2018-07-21T18:49:37.764Z,8.30
2018-07-21T18:52:06.603Z,8.10
2018-07-21T18:54:35.204Z,9.87
2018-07-21T18:57:04.064Z,8.77
2018-07-21T18:59:32.921Z,8.27
2018-07-21T19:02:01.566Z,9.80
2018-07-21T19:04:30.312Z,8.37
2018-07-21T19:06:58.929Z,8.63
2018-07-21T19:09:27.652Z,7.97
2018-07-21T19:12:01.491Z,9.13
2018-07-21T19:14:30.291Z,7.73
2018-07-21T19:16:59.062Z,8.37
2018-07-21T19:19:32.967Z,9.20
2018-07-21T19:22:01.697Z,10.40
2018-07-21T19:24:30.448Z,9.93
2018-07-21T19:27:04.505Z,10.37
2018-07-21T19:29:33.197Z,9.30
2018-07-21T19:32:07.077Z,7.57
2018-07-21T19:34:35.685Z,7.60
2018-07-21T19:37:08.434Z,8.50
2018-07-21T19:39:37.184Z,8.87
2018-07-21T19:42:06.140Z,6.70
2018-07-21T19:44:34.841Z,7.47
2018-07-21T19:47:03.556Z,8.30
2018-07-21T19:49:32.121Z,6.70
2018-07-21T19:52:00.807Z,7.20
2018-07-21T19:54:29.503Z,7.60
2018-07-21T19:56:58.149Z,6.70
2018-07-21T19:59:26.889Z,7.40
2018-07-21T20:01:55.658Z,8.00
2018-07-21T20:04:24.298Z,8.20
2018-07-21T20:06:52.927Z,8.80
2018-07-21T20:09:21.564Z,9.10
2018-07-21T20:11:50.328Z,8.73
2018-07-21T20:14:18.932Z,8.80
2018-07-21T20:16:47.703Z,9.20
2018-07-21T20:19:16.260Z,9.40
2018-07-21T20:21:44.997Z,11.30
2018-07-21T20:24:13.691Z,8.43
2018-07-21T20:26:42.218Z,9.53
2018-07-21T20:29:10.739Z,10.13
2018-07-21T20:31:39.306Z,10.07
2018-07-21T20:34:07.928Z,11.33
2018-07-21T20:36:36.828Z,8.70
2018-07-21T20:39:08.016Z,11.97
2018-07-21T20:41:36.735Z,8.53
2018-07-21T20:44:05.517Z,12.27
2018-07-21T20:46:34.849Z,10.33
2018-07-21T20:49:03.566Z,10.03
2018-07-21T20:51:32.168Z,11.30
2018-07-21T20:54:00.754Z,11.23
2018-07-21T20:56:29.855Z,11.53
2018-07-21T20:58:58.474Z,13.10
2018-07-21T21:01:27.352Z,11.90
2018-07-21T21:03:56.041Z,11.40
2018-07-21T21:06:24.691Z,11.67
2018-07-21T21:08:53.436Z,11.80
2018-07-21T21:11:22.483Z,11.27
2018-07-21T21:13:51.092Z,10.27
2018-07-21T21:16:20.010Z,11.63
2018-07-21T21:18:48.740Z,9.80
2018-07-21T21:21:17.611Z,9.93
2018-07-21T21:23:46.167Z,12.07
2018-07-21T21:26:14.844Z,11.30
2018-07-21T21:28:43.607Z,9.77
2018-07-21T21:31:12.404Z,11.10
2018-07-21T21:33:41.152Z,10.30
2018-07-21T21:36:09.967Z,9.70
2018-07-21T21:38:38.671Z,12.03
2018-07-21T21:41:07.410Z,13.03
2018-07-21T21:43:36.106Z,10.87
2018-07-21T21:46:05.039Z,12.37
2018-07-21T21:48:33.633Z,11.30
2018-07-21T21:51:02.320Z,12.47
2018-07-21T21:53:30.938Z,13.70
2018-07-21T21:55:59.625Z,12.67
2018-07-21T21:58:28.357Z,10.83
2018-07-21T22:01:09.465Z,13.23
2018-07-21T22:03:38.065Z,11.93
2018-07-21T22:06:06.760Z,11.87
2018-07-21T22:08:35.526Z,12.23
2018-07-21T22:11:04.691Z,12.70
2018-07-21T22:13:33.450Z,12.20
2018-07-21T22:16:02.152Z,12.03
2018-07-21T22:18:31.643Z,12.87
2018-07-21T22:21:00.484Z,12.40
2018-07-21T22:23:29.214Z,13.20
2018-07-21T22:25:57.857Z,12.20
2018-07-21T22:28:26.506Z,12.60
2018-07-21T22:30:55.364Z,14.80
2018-07-21T22:33:24.061Z,12.80
2018-07-21T22:35:52.740Z,14.07
2018-07-21T22:38:21.636Z,14.70
2018-07-21T22:40:50.350Z,13.70
2018-07-21T22:43:19.150Z,14.57
2018-07-21T22:45:47.931Z,13.40
2018-07-21T22:48:16.710Z,13.23
2018-07-21T22:50:45.383Z,14.80
2018-07-21T22:53:13.979Z,14.50
2018-07-21T22:55:42.664Z,14.80
2018-07-21T22:58:11.465Z,15.23
2018-07-21T23:00:40.229Z,14.83
2018-07-21T23:03:09.004Z,15.03
2018-07-21T23:05:37.740Z,13.30
2018-07-21T23:08:06.386Z,14.87
2018-07-21T23:10:35.104Z,14.30
2018-07-21T23:13:03.938Z,15.50
2018-07-21T23:15:32.595Z,14.50
2018-07-21T23:18:01.779Z,13.10
2018-07-21T23:20:30.532Z,11.97
2018-07-21T23:22:59.440Z,12.50
2018-07-21T23:25:28.088Z,13.80
2018-07-21T23:27:57.449Z,11.70
2018-07-21T23:30:26.229Z,13.57
2018-07-21T23:32:54.990Z,14.97
2018-07-21T23:35:24.534Z,11.97
2018-07-21T23:37:53.274Z,12.20
2018-07-21T23:40:22.073Z,14.17
2018-07-21T23:42:50.901Z,14.37
2018-07-21T23:45:19.610Z,16.27
2018-07-21T23:47:48.280Z,12.67
2018-07-21T23:50:16.843Z,13.37
2018-07-21T23:52:45.375Z,13.87
2018-07-21T23:55:14.007Z,13.50
2018-07-21T23:57:42.820Z,14.57
